createdAt,value
2022-08-11T00:02:01.134Z,22.45
2022-08-11T00:04:37.157Z,22.40
2022-08-11T00:07:06.881Z,22.39
2022-08-11T00:09:39.278Z,22.40
2022-08-11T00:12:17.029Z,22.38
2022-08-11T00:14:46.288Z,22.37
2022-08-11T00:17:16.028Z,22.29
2022-08-11T00:20:13.014Z,22.21
2022-08-11T00:22:37.951Z,22.16
2022-08-11T00:25:22.513Z,22.07
2022-08-11T00:27:49.714Z,22.03
2022-08-11T00:30:17.373Z,21.96
2022-08-11T00:32:55.450Z,21.96
2022-08-11T00:35:55.652Z,21.90
2022-08-11T00:38:16.967Z,22.01
2022-08-11T00:41:29.464Z,21.91
2022-08-11T00:44:28.030Z,21.86
2022-08-11T00:47:33.264Z,21.81
2022-08-11T00:50:23.871Z,21.77
2022-08-11T00:53:24.079Z,21.76
2022-08-11T00:56:35.147Z,21.77
2022-08-11T00:59:37.811Z,21.73
2022-08-11T01:02:22.495Z,21.78
2022-08-11T01:05:19.713Z,21.73
2022-08-11T01:08:23.359Z,21.68
2022-08-11T01:11:10.923Z,21.67
2022-08-11T01:14:05.685Z,21.64
2022-08-11T01:16:53.799Z,21.65
2022-08-11T01:20:45.516Z,21.63
2022-08-11T01:23:05.002Z,21.48
2022-08-11T01:26:12.432Z,21.46
2022-08-11T01:29:33.786Z,21.43
2022-08-11T01:32:21.731Z,21.48
2022-08-11T01:35:37.766Z,21.46
2022-08-11T01:38:46.609Z,21.42
2022-08-11T01:41:49.331Z,21.35
2022-08-11T01:44:56.195Z,21.34
2022-08-11T01:47:53.134Z,21.36
2022-08-11T01:51:17.511Z,21.36
2022-08-11T01:53:59.410Z,21.34
2022-08-11T01:57:15.686Z,21.34
2022-08-11T01:59:50.435Z,21.22
2022-08-11T02:02:47.766Z,21.14
2022-08-11T02:05:18.053Z,21.07
2022-08-11T02:08:32.988Z,21.01
2022-08-11T02:11:31.140Z,20.98
2022-08-11T02:14:39.638Z,20.98
2022-08-11T02:17:39.035Z,21.01
2022-08-11T02:20:47.393Z,20.96
2022-08-11T02:24:03.815Z,20.98
2022-08-11T02:26:36.679Z,20.93
2022-08-11T02:29:44.534Z,20.93
2022-08-11T02:32:43.278Z,20.91
2022-08-11T02:35:58.719Z,20.84
2022-08-11T02:38:43.361Z,20.75
2022-08-11T02:41:58.097Z,20.59
2022-08-11T02:44:28.365Z,20.61
2022-08-11T02:47:09.080Z,20.55
2022-08-11T02:50:02.565Z,20.54
2022-08-11T02:53:20.057Z,20.47
2022-08-11T02:56:17.843Z,20.37
2022-08-11T02:59:26.653Z,20.38
2022-08-11T03:02:35.370Z,20.33
2022-08-11T03:05:17.034Z,20.31
2022-08-11T03:08:20.457Z,20.29
2022-08-11T03:11:38.127Z,20.27
2022-08-11T03:14:54.923Z,20.28
2022-08-11T03:18:26.237Z,20.22
2022-08-11T03:21:21.382Z,20.24
2022-08-11T03:24:27.862Z,20.14
2022-08-11T03:27:08.569Z,20.05
2022-08-11T03:29:44.950Z,19.96
2022-08-11T03:32:29.938Z,19.97
2022-08-11T03:35:01.688Z,19.96
2022-08-11T03:37:56.696Z,19.86
2022-08-11T03:41:05.390Z,19.86
2022-08-11T03:44:18.589Z,19.79
2022-08-11T03:47:22.789Z,19.83
2022-08-11T03:50:26.910Z,19.87
2022-08-11T03:53:32.409Z,19.87
2022-08-11T03:56:28.693Z,19.89
2022-08-11T03:59:17.610Z,19.87
2022-08-11T04:02:41.265Z,19.83
2022-08-11T04:05:42.347Z,19.85
2022-08-11T04:08:50.819Z,19.77
2022-08-11T04:11:51.415Z,19.84
2022-08-11T04:15:43.505Z,19.79
2022-08-11T04:18:43.795Z,19.73
2022-08-11T04:21:44.277Z,19.67
2022-08-11T04:24:39.616Z,19.63
2022-08-11T04:27:48.242Z,19.59
2022-08-11T04:30:50.617Z,19.56
2022-08-11T04:34:20.758Z,19.55
2022-08-11T04:37:30.549Z,19.49
2022-08-11T04:40:47.162Z,19.51
2022-08-11T04:44:05.926Z,19.52
2022-08-11T04:47:08.370Z,19.43
2022-08-11T04:49:59.536Z,19.47
2022-08-11T04:53:09.572Z,19.47
2022-08-11T04:56:27.648Z,19.52
2022-08-11T04:59:48.585Z,19.50
2022-08-11T05:03:14.363Z,19.53
2022-08-11T05:06:48.965Z,19.61
2022-08-11T05:09:47.726Z,19.66
2022-08-11T05:12:49.457Z,19.66
2022-08-11T05:15:52.868Z,19.77
2022-08-11T05:18:44.124Z,19.83
2022-08-11T05:21:45.598Z,19.85
2022-08-11T05:24:40.631Z,19.83
2022-08-11T05:27:31.087Z,19.90
2022-08-11T05:30:47.441Z,19.94
2022-08-11T05:34:06.699Z,22.46
2022-08-11T05:36:52.159Z,23.55
2022-08-11T05:39:48.871Z,24.11
2022-08-11T05:42:40.669Z,24.52
2022-08-11T05:45:58.650Z,24.84
2022-08-11T05:48:41.417Z,25.08
2022-08-11T05:51:30.616Z,25.25
2022-08-11T05:54:28.579Z,25.40
2022-08-11T05:56:59.952Z,25.55
2022-08-11T05:59:30.821Z,25.64
2022-08-11T06:02:07.582Z,25.73
2022-08-11T06:04:35.178Z,25.79
2022-08-11T06:07:10.968Z,25.87
2022-08-11T06:09:50.748Z,25.93
2022-08-11T06:12:33.576Z,25.99
2022-08-11T06:15:11.267Z,26.05
2022-08-11T06:17:47.153Z,26.08
2022-08-11T06:20:16.596Z,26.11
2022-08-11T06:22:52.836Z,26.15
2022-08-11T06:25:21.257Z,26.18
2022-08-11T06:27:58.474Z,26.21
2022-08-11T06:30:42.700Z,26.25
2022-08-11T06:33:46.834Z,26.27
2022-08-11T06:36:38.465Z,26.29
2022-08-11T06:39:29.619Z,26.31
2022-08-11T06:42:58.764Z,26.33
2022-08-11T06:46:28.160Z,26.34
2022-08-11T06:48:56.387Z,26.36
2022-08-11T06:51:23.941Z,26.35
2022-08-11T06:54:04.141Z,26.38
2022-08-11T07:00:07.635Z,26.40
2022-08-11T07:02:46.478Z,26.41
2022-08-11T07:05:31.412Z,26.42
2022-08-11T07:08:49.396Z,26.44
2022-08-11T07:12:05.620Z,26.45
2022-08-11T07:14:52.858Z,26.45
2022-08-11T07:17:28.745Z,26.45
2022-08-11T07:20:21.115Z,26.47
2022-08-11T07:23:28.937Z,26.52
2022-08-11T07:26:18.112Z,26.52
2022-08-11T07:28:58.859Z,26.53
2022-08-11T07:31:42.112Z,26.53
2022-08-11T07:34:49.657Z,26.54
2022-08-11T07:37:19.838Z,26.56
2022-08-11T07:39:49.235Z,26.56
2022-08-11T07:42:22.197Z,26.58
2022-08-11T07:45:08.931Z,26.59
2022-08-11T07:47:56.527Z,26.62
2022-08-11T07:50:44.242Z,26.59
2022-08-11T07:53:13.326Z,26.58
2022-08-11T07:55:50.839Z,26.62
2022-08-11T07:58:45.748Z,26.58
2022-08-11T08:01:44.147Z,26.63
2022-08-11T08:04:34.364Z,26.64
2022-08-11T08:07:23.383Z,26.63
2022-08-11T08:10:09.940Z,26.61
2022-08-11T08:13:00.724Z,26.57
2022-08-11T08:15:48.597Z,26.60
2022-08-11T08:18:26.292Z,26.62
2022-08-11T08:20:57.433Z,26.61
2022-08-11T08:23:34.531Z,26.61
2022-08-11T08:26:26.731Z,26.59
2022-08-11T08:29:15.805Z,26.61
2022-08-11T08:31:44.227Z,26.62
2022-08-11T08:34:12.922Z,26.63
2022-08-11T08:36:47.641Z,26.66
2022-08-11T08:39:16.558Z,26.68
2022-08-11T08:41:44.844Z,26.71
2022-08-11T08:44:37.358Z,26.68
2022-08-11T08:47:06.116Z,26.71
2022-08-11T08:49:49.521Z,26.70
2022-08-11T08:52:30.788Z,26.68
2022-08-11T08:55:06.264Z,26.72
2022-08-11T08:57:38.867Z,26.70
2022-08-11T09:00:12.501Z,26.71
2022-08-11T09:02:41.321Z,26.71
2022-08-11T09:05:10.052Z,26.75
2022-08-11T09:07:40.719Z,26.79
2022-08-11T09:10:11.640Z,26.73
2022-08-11T09:12:42.733Z,26.72
2022-08-11T09:15:11.914Z,26.73
2022-08-11T09:17:46.390Z,26.82
2022-08-11T09:20:26.689Z,26.84
2022-08-11T09:26:30.933Z,26.75
2022-08-11T09:29:00.679Z,26.77
2022-08-11T09:31:38.983Z,26.69
2022-08-11T09:34:09.127Z,26.72
2022-08-11T09:36:56.336Z,26.73
2022-08-11T09:39:42.815Z,26.77
2022-08-11T09:42:11.409Z,26.77
2022-08-11T09:44:50.523Z,26.78
2022-08-11T09:47:25.576Z,26.77
2022-08-11T09:50:02.162Z,26.78
2022-08-11T09:52:35.899Z,26.79
2022-08-11T09:55:11.021Z,26.79
2022-08-11T09:58:04.519Z,26.75
2022-08-11T10:00:40.402Z,26.79
2022-08-11T10:03:24.190Z,26.82
2022-08-11T10:06:17.885Z,26.82
2022-08-11T10:08:47.523Z,26.74
2022-08-11T10:11:18.644Z,26.75
2022-08-11T10:14:32.935Z,26.75
2022-08-11T10:16:53.599Z,26.82
2022-08-11T10:19:22.394Z,26.87
2022-08-11T10:22:12.841Z,26.88
2022-08-11T10:25:04.101Z,26.86
2022-08-11T10:28:28.914Z,26.91
2022-08-11T10:30:45.560Z,26.84
2022-08-11T10:33:44.178Z,26.87
2022-08-11T10:36:24.845Z,26.82
2022-08-11T10:38:52.569Z,26.89
2022-08-11T10:41:38.838Z,26.82
2022-08-11T10:44:26.951Z,26.83
2022-08-11T10:47:12.745Z,26.94
2022-08-11T10:49:41.051Z,26.95
2022-08-11T10:52:26.800Z,26.94
2022-08-11T10:55:12.463Z,27.00
2022-08-11T10:58:04.115Z,26.97
2022-08-11T11:00:33.208Z,26.99
2022-08-11T11:03:22.063Z,27.04
2022-08-11T11:06:28.964Z,27.02
2022-08-11T11:08:57.578Z,26.99
2022-08-11T11:11:56.192Z,26.95
2022-08-11T11:14:50.773Z,26.93
2022-08-11T11:17:56.409Z,27.00
2022-08-11T11:20:48.699Z,26.99
2022-08-11T11:23:47.475Z,27.00
2022-08-11T11:26:56.285Z,27.09
2022-08-11T11:30:20.337Z,27.09
2022-08-11T11:34:15.927Z,27.15
2022-08-11T11:36:58.602Z,27.20
2022-08-11T11:39:32.169Z,27.24
2022-08-11T11:42:10.306Z,27.21
2022-08-11T11:44:43.373Z,27.28
2022-08-11T11:47:12.886Z,27.30
2022-08-11T11:49:44.181Z,27.32
2022-08-11T11:52:19.096Z,27.22
2022-08-11T11:54:54.916Z,27.24
2022-08-11T11:57:41.575Z,27.25
2022-08-11T12:00:44.976Z,27.27
2022-08-11T12:03:13.273Z,27.24
2022-08-11T12:05:43.821Z,27.31
2022-08-11T12:08:15.262Z,27.30
2022-08-11T12:11:14.227Z,27.34
2022-08-11T12:13:44.601Z,27.39
2022-08-11T12:16:33.193Z,27.42
2022-08-11T12:19:15.246Z,27.39
2022-08-11T12:22:03.462Z,27.37
2022-08-11T12:24:51.581Z,27.50
2022-08-11T12:27:24.851Z,27.44
2022-08-11T12:30:08.616Z,27.39
2022-08-11T12:32:38.532Z,27.49
2022-08-11T12:35:08.061Z,27.50
2022-08-11T12:37:45.896Z,27.45
2022-08-11T12:41:11.733Z,27.44
2022-08-11T12:43:56.481Z,27.50
2022-08-11T12:46:45.963Z,27.58
2022-08-11T12:49:38.155Z,27.49
2022-08-11T12:52:15.859Z,27.49
2022-08-11T12:55:11.030Z,27.60
2022-08-11T12:58:05.677Z,27.56
2022-08-11T13:00:52.397Z,27.53
2022-08-11T13:03:40.075Z,27.56
2022-08-11T13:06:08.812Z,27.70
2022-08-11T13:08:39.261Z,27.67
2022-08-11T13:11:55.739Z,27.55
2022-08-11T13:14:15.247Z,27.57
2022-08-11T13:17:03.760Z,27.54
2022-08-11T13:19:32.283Z,27.56
2022-08-11T13:22:00.798Z,27.60
2022-08-11T13:24:28.671Z,27.67
2022-08-11T13:26:56.283Z,27.75
2022-08-11T13:29:26.733Z,27.69
2022-08-11T13:32:00.959Z,27.85
2022-08-11T13:34:33.290Z,27.82
2022-08-11T13:37:05.274Z,27.79
2022-08-11T13:39:34.697Z,27.76
2022-08-11T13:42:04.652Z,27.72
2022-08-11T13:44:36.721Z,27.72
2022-08-11T13:47:07.275Z,27.73
2022-08-11T13:49:39.976Z,27.85
2022-08-11T13:52:13.591Z,27.86
2022-08-11T13:54:42.661Z,27.95
2022-08-11T13:57:13.784Z,28.01
2022-08-11T14:00:20.901Z,27.98
2022-08-11T14:02:55.897Z,28.04
2022-08-11T14:05:31.331Z,27.99
2022-08-11T14:08:04.740Z,27.92
2022-08-11T14:10:35.711Z,27.91
2022-08-11T14:13:42.208Z,27.83
2022-08-11T14:16:31.443Z,27.78
2022-08-11T14:19:04.533Z,27.76
2022-08-11T14:21:56.516Z,27.81
2022-08-11T14:24:24.129Z,27.80
2022-08-11T14:26:52.959Z,27.86
2022-08-11T14:29:22.721Z,27.89
2022-08-11T14:31:57.047Z,27.87
2022-08-11T14:34:32.475Z,27.91
2022-08-11T14:37:15.359Z,27.95
2022-08-11T14:39:47.394Z,28.05
2022-08-11T14:42:36.178Z,28.33
2022-08-11T14:45:58.269Z,28.34
2022-08-11T14:48:24.905Z,28.63
2022-08-11T14:50:52.970Z,28.53
2022-08-11T14:53:23.383Z,28.34
2022-08-11T14:56:09.965Z,28.13
2022-08-11T14:58:37.286Z,28.13
2022-08-11T15:01:27.994Z,28.10
2022-08-11T15:04:34.178Z,34.93
2022-08-11T15:06:45.811Z,35.03
2022-08-11T15:09:13.233Z,34.82
2022-08-11T15:12:00.560Z,34.95
2022-08-11T15:14:46.296Z,34.79
2022-08-11T15:17:14.493Z,34.74
2022-08-11T15:20:04.116Z,34.85
2022-08-11T15:22:50.670Z,34.74
2022-08-11T15:25:19.941Z,34.79
2022-08-11T15:28:10.073Z,34.93
2022-08-11T15:30:57.346Z,34.86
2022-08-11T15:33:45.535Z,34.91
2022-08-11T15:36:33.940Z,34.89
2022-08-11T15:39:19.489Z,35.01
2022-08-11T15:42:19.703Z,35.01
2022-08-11T15:45:13.077Z,34.87
2022-08-11T15:48:06.360Z,34.82
2022-08-11T15:50:35.926Z,34.91
2022-08-11T15:53:17.994Z,34.82
2022-08-11T15:55:48.342Z,34.70
2022-08-11T15:58:37.119Z,34.82
2022-08-11T16:01:26.161Z,34.78
2022-08-11T16:04:13.828Z,34.81
2022-08-11T16:06:56.167Z,34.91
2022-08-11T16:09:51.982Z,34.88
2022-08-11T16:12:26.274Z,34.78
2022-08-11T16:15:20.284Z,34.72
2022-08-11T16:17:52.560Z,34.65
2022-08-11T16:20:23.383Z,34.67
2022-08-11T16:23:00.366Z,34.77
2022-08-11T16:26:38.116Z,34.67
2022-08-11T16:28:22.575Z,34.65
2022-08-11T16:30:51.663Z,34.60
2022-08-11T16:33:50.931Z,34.64
2022-08-11T16:36:33.031Z,34.58
2022-08-11T16:39:02.030Z,34.42
2022-08-11T16:41:51.250Z,34.50
2022-08-11T16:44:39.323Z,34.52
2022-08-11T16:47:10.190Z,34.55
2022-08-11T16:49:52.823Z,34.54
2022-08-11T16:52:24.077Z,34.50
2022-08-11T16:54:52.877Z,34.45
2022-08-11T16:57:47.810Z,34.30
2022-08-11T17:00:17.138Z,34.39
2022-08-11T17:03:10.169Z,34.31
2022-08-11T17:06:02.778Z,34.46
2022-08-11T17:09:18.943Z,34.40
2022-08-11T17:12:12.316Z,34.32
2022-08-11T17:14:48.427Z,34.22
2022-08-11T17:17:28.848Z,34.09
2022-08-11T17:20:40.018Z,34.10
2022-08-11T17:23:13.172Z,34.13
2022-08-11T17:26:03.637Z,34.05
2022-08-11T17:28:34.098Z,33.93
2022-08-11T17:31:23.046Z,33.86
2022-08-11T17:34:14.004Z,33.83
2022-08-11T17:36:45.668Z,33.75
2022-08-11T17:39:15.154Z,33.69
2022-08-11T17:42:03.008Z,33.68
2022-08-11T17:44:51.587Z,33.58
2022-08-11T17:47:38.365Z,33.58
2022-08-11T17:50:09.242Z,33.49
2022-08-11T17:53:05.547Z,33.45
2022-08-11T17:55:54.484Z,33.36
2022-08-11T17:58:41.752Z,33.26
2022-08-11T18:01:11.812Z,33.23
2022-08-11T18:03:57.587Z,33.14
2022-08-11T18:06:33.834Z,33.10
2022-08-11T18:09:23.949Z,32.95
2022-08-11T18:12:12.908Z,32.88
2022-08-11T18:15:02.296Z,32.84
2022-08-11T18:17:48.199Z,32.66
2022-08-11T18:20:34.286Z,32.57
2022-08-11T18:23:45.684Z,32.39
2022-08-11T18:26:32.516Z,32.32
2022-08-11T18:29:18.960Z,32.17
2022-08-11T18:32:10.393Z,32.09
2022-08-11T18:35:00.474Z,32.03
2022-08-11T18:37:50.849Z,31.86
2022-08-11T18:40:45.528Z,31.65
2022-08-11T18:43:33.775Z,31.58
2022-08-11T18:46:24.959Z,31.41
2022-08-11T18:49:19.472Z,31.27
2022-08-11T18:52:08.863Z,31.15
2022-08-11T18:55:00.355Z,30.77
2022-08-11T18:57:49.826Z,30.62
2022-08-11T19:00:41.702Z,30.44
2022-08-11T19:03:30.671Z,30.29
2022-08-11T19:06:38.395Z,30.25
2022-08-11T19:09:33.427Z,30.21
2022-08-11T19:12:20.974Z,30.06
2022-08-11T19:15:09.600Z,29.92
2022-08-11T19:18:00.080Z,29.72
2022-08-11T19:20:50.087Z,29.62
2022-08-11T19:23:43.640Z,29.54
2022-08-11T19:26:29.750Z,29.50
2022-08-11T19:30:07.056Z,29.31
2022-08-11T19:32:24.700Z,29.07
2022-08-11T19:35:11.160Z,28.89
2022-08-11T19:38:04.678Z,28.90
2022-08-11T19:40:52.048Z,28.80
2022-08-11T19:43:39.106Z,28.61
2022-08-11T19:46:26.824Z,28.61
2022-08-11T19:49:15.218Z,28.40
2022-08-11T19:52:03.697Z,28.22
2022-08-11T19:54:52.659Z,28.08
2022-08-11T19:57:40.556Z,27.94
2022-08-11T20:00:30.972Z,27.84
2022-08-11T20:03:22.646Z,27.80
2022-08-11T20:06:09.497Z,27.85
2022-08-11T20:08:59.944Z,27.67
2022-08-11T20:11:50.615Z,27.66
2022-08-11T20:14:38.984Z,27.72
2022-08-11T20:17:28.201Z,27.69
2022-08-11T20:20:16.354Z,27.55
2022-08-11T20:23:03.943Z,27.43
2022-08-11T20:25:53.122Z,27.42
2022-08-11T20:28:43.328Z,27.32
2022-08-11T20:31:30.339Z,27.19
2022-08-11T20:34:18.613Z,27.13
2022-08-11T20:37:06.922Z,27.12
2022-08-11T20:39:53.691Z,27.03
2022-08-11T20:42:41.770Z,26.96
2022-08-11T20:45:31.539Z,26.86
2022-08-11T20:48:19.291Z,26.80
2022-08-11T20:51:09.740Z,26.78
2022-08-11T20:54:05.944Z,26.63
2022-08-11T20:56:54.863Z,26.54
2022-08-11T20:59:56.303Z,26.48
2022-08-11T21:02:44.764Z,26.51
2022-08-11T21:06:10.092Z,26.43
2022-08-11T21:08:41.768Z,26.33
2022-08-11T21:11:30.971Z,26.29
2022-08-11T21:14:20.742Z,26.09
2022-08-11T21:17:27.510Z,25.93
2022-08-11T21:20:21.168Z,25.94
2022-08-11T21:23:23.964Z,25.80
2022-08-11T21:26:26.366Z,25.65
2022-08-11T21:29:18.475Z,25.62
2022-08-11T21:32:06.073Z,25.63
2022-08-11T21:34:53.302Z,25.79
2022-08-11T21:37:40.190Z,25.76
2022-08-11T21:40:30.040Z,25.73
2022-08-11T21:43:19.077Z,25.53
2022-08-11T21:46:07.088Z,25.42
2022-08-11T21:48:56.545Z,25.44
2022-08-11T21:51:44.681Z,25.40
2022-08-11T21:54:31.113Z,25.28
2022-08-11T21:57:17.867Z,25.30
2022-08-11T22:00:14.959Z,25.23
2022-08-11T22:03:06.186Z,25.22
2022-08-11T22:05:53.181Z,25.18
2022-08-11T22:08:39.490Z,25.10
2022-08-11T22:11:32.521Z,25.04
2022-08-11T22:14:20.246Z,25.06
2022-08-11T22:17:06.226Z,25.09
2022-08-11T22:19:58.046Z,25.02
2022-08-11T22:22:53.181Z,24.98
2022-08-11T22:25:50.713Z,24.94
2022-08-11T22:28:38.212Z,24.87
2022-08-11T22:31:27.185Z,24.81
2022-08-11T22:34:13.612Z,24.69
2022-08-11T22:37:02.491Z,24.59
2022-08-11T22:39:59.767Z,24.55
2022-08-11T22:42:52.031Z,24.48
2022-08-11T22:45:39.249Z,24.43
2022-08-11T22:48:26.251Z,24.40
2022-08-11T22:51:13.472Z,24.40
2022-08-11T22:54:01.690Z,24.38
2022-08-11T22:56:49.869Z,24.38
2022-08-11T22:59:37.586Z,24.27
2022-08-11T23:02:24.983Z,24.13
2022-08-11T23:05:12.510Z,24.08
2022-08-11T23:07:59.743Z,24.10
2022-08-11T23:10:46.212Z,24.03
2022-08-11T23:13:32.819Z,24.07
2022-08-11T23:16:19.502Z,24.03
2022-08-11T23:19:05.583Z,23.97
2022-08-11T23:21:53.703Z,23.95
2022-08-11T23:24:40.522Z,23.94
2022-08-11T23:27:28.425Z,23.88
2022-08-11T23:30:19.343Z,23.84
2022-08-11T23:33:11.295Z,23.91
2022-08-11T23:36:05.321Z,23.79
2022-08-11T23:38:52.099Z,23.72
2022-08-11T23:41:38.353Z,23.64
2022-08-11T23:44:26.156Z,23.60
2022-08-11T23:47:15.473Z,23.52
2022-08-11T23:50:02.930Z,23.46
2022-08-11T23:52:52.130Z,23.47
2022-08-11T23:55:39.409Z,23.41
2022-08-11T23:58:26.408Z,23.35
